Time;durP1;ratioP1;P1;durP2;ratioP2;P2;SDS_P1;SDS_P2;PMS_P1;PMS_P2;Temp;Humidity;BMP_temperature;BMP_pressure;BME280_temperature;BME280_humidity;BME280_pressure;Samples;Min_cycle;Max_cycle;Signal;HPM_P1;HPM_P2
2022/10/31 07:13:41;;;;;;;7.40;5.47;;;;;;;;;;12689997;22;2472331;-84
2022/10/31 07:18:48;;;;;;;8.30;6.18;;;;;;;;;;12759255;23;20009;-83
2022/10/31 07:23:54;;;;;;;8.80;6.55;;;;;;;;;;12767757;23;20044;-82
2022/10/31 07:28:59;;;;;;;8.15;6.20;;;;;;;;;;12766623;23;20374;-83
2022/10/31 07:34:02;;;;;;;8.70;6.80;;;;;;;;;;12754493;23;20001;-82
2022/10/31 07:44:41;;;;;;;9.10;6.00;;;;;;;;;;12784844;23;20045;-81
2022/10/31 07:49:45;;;;;;;8.25;6.60;;;;;;;;;;12780362;23;20009;-82
2022/10/31 07:55:20;;;;;;;;;;;;;;;;;;;;;
2022/10/31 08:00:37;;;;;;;9.43;6.40;;;;;;;;;;12772373;23;20059;-83
2022/10/31 08:05:44;;;;;;;7.03;4.70;;;;;;;;;;12742457;23;20005;-82
2022/10/31 08:10:46;;;;;;;9.00;5.55;;;;;;;;;;12761674;23;20076;-84
2022/10/31 08:15:50;;;;;;;7.65;5.63;;;;;;;;;;12698403;23;20093;-82
2022/10/31 08:21:10;;;;;;;7.97;6.43;;;;;;;;;;12714318;23;20002;-83
2022/10/31 08:26:31;;;;;;;11.70;7.60;;;;;;;;;;12680648;23;20036;-84
2022/10/31 08:31:47;;;;;;;15.70;9.18;;;;;;;;;;12697671;23;20060;-83
2022/10/31 08:42:45;;;;;;;11.73;8.00;;;;;;;;;;12516589;23;20011;-84
2022/10/31 08:47:49;;;;;;;11.38;8.00;;;;;;;;;;12489597;23;20410;-84
2022/10/31 08:59:01;;;;;;;10.15;7.50;;;;;;;;;;12522765;23;20003;-83
2022/10/31 09:04:31;;;;;;;12.90;7.47;;;;;;;;;;12528329;23;20011;-83
2022/10/31 09:09:35;;;;;;;15.93;8.48;;;;;;;;;;12608096;23;19998;-83
2022/10/31 09:14:39;;;;;;;14.15;8.00;;;;;;;;;;12708153;23;20470;-83
2022/10/31 09:19:47;;;;;;;13.68;8.05;;;;;;;;;;12696269;23;20374;-83
2022/10/31 09:24:48;;;;;;;11.98;8.73;;;;;;;;;;12703211;23;20010;-82
2022/10/31 09:30:00;;;;;;;14.95;9.55;;;;;;;;;;12698148;23;20025;-82
2022/10/31 09:35:03;;;;;;;12.52;8.63;;;;;;;;;;12697803;23;20469;-82
2022/10/31 09:40:33;;;;;;;12.15;9.10;;;;;;;;;;12699669;23;20080;-82
2022/10/31 09:46:13;;;;;;;14.40;9.98;;;;;;;;;;12690601;23;20524;-82
2022/10/31 09:51:33;;;;;;;15.60;9.85;;;;;;;;;;12697556;23;20018;-82
2022/10/31 09:56:37;;;;;;;15.48;10.40;;;;;;;;;;12692232;23;20085;-81
2022/10/31 10:13:32;;;;;;;14.65;9.63;;;;;;;;;;12729410;23;20024;-82
2022/10/31 10:35:53;;;;;;;15.23;10.70;;;;;;;;;;12759009;23;20446;-84
2022/10/31 10:40:54;;;;;;;12.75;9.70;;;;;;;;;;12750488;23;20434;-80
2022/10/31 10:52:10;;;;;;;16.67;10.27;;;;;;;;;;12452232;23;20035;-82
2022/10/31 10:57:11;;;;;;;;;;;;;;;;;;12495062;23;20020;-82
2022/10/31 11:02:19;;;;;;;16.50;10.68;;;;;;;;;;12720418;23;19920;-83
2022/10/31 11:07:40;;;;;;;15.38;10.23;;;;;;;;;;12751464;23;20081;-83
2022/10/31 11:12:58;;;;;;;17.73;10.60;;;;;;;;;;12723529;23;20028;-82
2022/10/31 11:18:00;;;;;;;15.43;10.82;;;;;;;;;;12755505;23;20013;-83
2022/10/31 11:23:03;;;;;;;18.90;9.73;;;;;;;;;;12732083;23;20156;-82
2022/10/31 11:28:15;;;;;;;16.25;10.40;;;;;;;;;;12734138;23;20064;-82
2022/10/31 11:33:43;;;;;;;23.92;14.45;;;;;;;;;;12739974;23;20044;-83
2022/10/31 11:38:47;;;;;;;17.58;11.00;;;;;;;;;;12695022;23;20006;-83
2022/10/31 11:43:54;;;;;;;19.15;10.80;;;;;;;;;;12751003;23;20010;-82
2022/10/31 11:48:56;;;;;;;16.08;9.65;;;;;;;;;;12775649;23;20124;-83
2022/10/31 11:54:10;;;;;;;18.10;9.48;;;;;;;;;;12750692;23;20200;-84
2022/10/31 11:59:41;;;;;;;16.33;10.32;;;;;;;;;;12754216;23;20020;-83
2022/10/31 12:04:42;;;;;;;;;;;;;;;;;;12735249;23;20009;-80
2022/10/31 12:09:43;;;;;;;18.77;12.10;;;;;;;;;;12795731;23;19919;-80
2022/10/31 12:20:39;;;;;;;16.27;10.27;;;;;;;;;;12787830;23;20056;-81
2022/10/31 12:26:08;;;;;;;17.83;9.82;;;;;;;;;;12755413;23;20346;-84
2022/10/31 12:31:18;;;;;;;14.20;9.73;;;;;;;;;;12752588;23;20009;-83
2022/10/31 12:36:20;;;;;;;13.70;8.80;;;;;;;;;;12760333;23;20021;-83
2022/10/31 12:41:30;;;;;;;15.07;8.73;;;;;;;;;;12765568;23;20061;-82
2022/10/31 12:46:51;;;;;;;16.40;9.52;;;;;;;;;;12760811;23;20025;-82
2022/10/31 12:52:14;;;;;;;14.07;9.45;;;;;;;;;;12762322;23;20070;-80
2022/10/31 12:57:52;;;;;;;15.32;9.30;;;;;;;;;;12768309;23;20036;-86
2022/10/31 13:02:58;;;;;;;14.05;8.73;;;;;;;;;;12766546;23;20005;-82
2022/10/31 13:08:19;;;;;;;15.05;9.48;;;;;;;;;;12772249;23;20430;-82
2022/10/31 13:13:20;;;;;;;14.07;8.98;;;;;;;;;;12773228;23;20010;-83
2022/10/31 13:18:34;;;;;;;12.65;8.98;;;;;;;;;;12774227;23;20029;-82
2022/10/31 13:23:54;;;;;;;19.27;9.43;;;;;;;;;;12772616;23;20013;-85
2022/10/31 13:29:24;;;;;;;15.25;8.85;;;;;;;;;;12771752;23;20001;-84
2022/10/31 13:34:44;;;;;;;14.13;8.90;;;;;;;;;;12498157;23;20003;-84
2022/10/31 13:40:03;;;;;;;14.20;8.90;;;;;;;;;;12515397;23;20011;-84
2022/10/31 14:36:33;;;;;;;20.17;11.30;;;;;;;;;;12710820;23;20062;-82
2022/10/31 14:41:54;;;;;;;13.95;8.30;;;;;;;;;;12690260;23;20025;-81
